createdAt,value
2022-12-23T00:00:02.509Z,13.20
2022-12-23T00:01:38.373Z,13.90
2022-12-23T00:02:11.996Z,10.50
2022-12-23T00:02:46.267Z,9.20
2022-12-23T00:03:19.950Z,10.80
2022-12-23T00:03:56.800Z,14.10
2022-12-23T00:04:30.451Z,7.70
2022-12-23T00:05:05.056Z,11.80
2022-12-23T00:05:39.507Z,12.80
2022-12-23T00:06:15.439Z,7.40
2022-12-23T00:06:49.017Z,17.10
2022-12-23T00:07:22.517Z,12.80
2022-12-23T00:07:56.030Z,11.60
2022-12-23T00:08:29.526Z,13.10
2022-12-23T00:09:02.968Z,11.30
2022-12-23T00:09:36.425Z,10.90
2022-12-23T00:10:10.243Z,12.80
2022-12-23T00:10:43.749Z,9.40
2022-12-23T00:11:20.344Z,9.70
2022-12-23T00:12:12.370Z,9.60
2022-12-23T00:13:04.044Z,9.70
2022-12-23T00:13:56.069Z,9.60
2022-12-23T00:14:48.028Z,9.70
2022-12-23T00:15:21.435Z,9.90
2022-12-23T00:16:08.694Z,14.50
2022-12-23T00:16:42.298Z,34.60
2022-12-23T00:17:22.628Z,8.00
2022-12-23T00:17:56.797Z,18.90
2022-12-23T00:18:32.928Z,8.30
2022-12-23T00:19:06.445Z,8.30
2022-12-23T00:19:39.979Z,13.40
2022-12-23T00:20:16.432Z,19.00
2022-12-23T00:20:50.127Z,10.60
2022-12-23T00:21:23.695Z,11.50
2022-12-23T00:21:57.315Z,8.00
2022-12-23T00:22:49.331Z,8.20
2022-12-23T00:23:22.707Z,12.50
2022-12-23T00:23:56.051Z,10.20
2022-12-23T00:24:29.461Z,15.50
2022-12-23T00:25:02.872Z,14.70
2022-12-23T00:25:42.473Z,13.20
2022-12-23T00:26:24.572Z,13.60
2022-12-23T00:26:58.118Z,12.80
2022-12-23T00:27:37.194Z,12.30
2022-12-23T00:28:19.882Z,9.20
2022-12-23T00:28:56.726Z,10.90
2022-12-23T00:29:30.292Z,10.30
2022-12-23T00:30:05.555Z,44.50
2022-12-23T00:30:47.021Z,11.10
2022-12-23T00:31:21.424Z,9.80
2022-12-23T00:31:54.940Z,14.90
2022-12-23T00:32:28.369Z,10.80
2022-12-23T00:33:01.825Z,9.40
2022-12-23T00:33:44.313Z,15.90
2022-12-23T00:34:17.719Z,8.20
2022-12-23T00:34:51.233Z,8.20
2022-12-23T00:35:24.578Z,8.30
2022-12-23T00:35:58.644Z,10.00
2022-12-23T00:36:33.840Z,8.30
2022-12-23T00:37:07.423Z,10.60
2022-12-23T00:37:41.064Z,7.90
2022-12-23T00:38:38.985Z,9.80
2022-12-23T00:39:31.824Z,10.90
2022-12-23T00:40:24.668Z,10.00
2022-12-23T00:41:16.817Z,10.40
2022-12-23T00:42:08.840Z,8.00
2022-12-23T00:42:54.455Z,7.80
2022-12-23T00:43:27.993Z,102.60
2022-12-23T00:44:02.457Z,9.50
2022-12-23T00:44:35.762Z,10.10
2022-12-23T00:45:16.229Z,10.00
2022-12-23T00:45:49.867Z,38.40
2022-12-23T00:46:23.475Z,13.80
2022-12-23T00:46:57.067Z,13.40
2022-12-23T00:47:49.250Z,9.00
2022-12-23T00:48:41.181Z,9.90
2022-12-23T00:49:34.272Z,9.20
2022-12-23T00:50:08.440Z,9.80
2022-12-23T00:50:42.038Z,9.30
2022-12-23T00:51:15.419Z,9.30
2022-12-23T00:51:48.905Z,8.60
2022-12-23T00:52:22.274Z,10.30
2022-12-23T00:52:56.066Z,12.40
2022-12-23T00:53:30.429Z,9.90
2022-12-23T00:54:04.265Z,11.40
2022-12-23T00:54:37.919Z,12.20
2022-12-23T00:55:11.391Z,9.80
2022-12-23T00:55:47.968Z,11.50
2022-12-23T00:56:21.465Z,10.80
2022-12-23T00:56:55.289Z,10.40
2022-12-23T00:57:28.869Z,10.10
2022-12-23T00:58:02.375Z,9.80
2022-12-23T00:58:35.967Z,13.60
2022-12-23T00:59:09.715Z,10.30
2022-12-23T00:59:43.190Z,10.80
2022-12-23T01:00:17.042Z,10.10
2022-12-23T01:01:09.130Z,10.40
2022-12-23T01:02:01.705Z,9.90
2022-12-23T01:02:53.817Z,9.40
2022-12-23T01:03:46.525Z,8.40
2022-12-23T01:04:39.451Z,13.60
2022-12-23T01:05:31.847Z,11.80
2022-12-23T01:06:05.461Z,10.00
2022-12-23T01:06:38.960Z,10.70
2022-12-23T01:07:12.606Z,11.30
2022-12-23T01:07:46.240Z,14.10
2022-12-23T01:08:19.964Z,14.50
2022-12-23T01:08:53.447Z,20.90
2022-12-23T01:09:27.405Z,13.50
2022-12-23T01:10:00.850Z,58.50
2022-12-23T01:10:42.561Z,20.10
2022-12-23T01:11:19.791Z,10.20
2022-12-23T01:11:54.981Z,9.20
2022-12-23T01:12:28.544Z,12.80
2022-12-23T01:13:02.068Z,10.90
2022-12-23T01:13:36.702Z,7.10
2022-12-23T01:14:10.227Z,7.20
2022-12-23T01:14:43.753Z,11.90
2022-12-23T01:15:17.543Z,12.40
2022-12-23T01:15:51.085Z,8.50
2022-12-23T01:16:24.786Z,9.60
2022-12-23T01:16:58.528Z,8.20
2022-12-23T01:17:32.024Z,7.90
2022-12-23T01:18:08.377Z,8.20
2022-12-23T01:18:42.221Z,9.40
2022-12-23T01:19:16.028Z,10.90
2022-12-23T01:19:49.447Z,9.50
2022-12-23T01:20:23.324Z,7.50
2022-12-23T01:21:02.582Z,8.60
2022-12-23T01:21:36.063Z,15.30
2022-12-23T01:22:09.724Z,12.20
2022-12-23T01:22:43.161Z,11.20
2022-12-23T01:23:16.627Z,11.30
2022-12-23T01:23:50.066Z,13.80
2022-12-23T01:24:24.192Z,14.20
2022-12-23T01:24:57.581Z,54.30
2022-12-23T01:25:32.387Z,10.70
2022-12-23T01:26:07.643Z,11.90
2022-12-23T01:26:41.274Z,7.30
2022-12-23T01:27:14.761Z,6.80
2022-12-23T01:27:48.223Z,10.00
2022-12-23T01:28:21.706Z,11.80
2022-12-23T01:28:56.939Z,80.10
2022-12-23T01:29:30.355Z,11.90
2022-12-23T01:30:04.265Z,8.70
2022-12-23T01:30:38.445Z,9.90
2022-12-23T01:31:12.107Z,9.50
2022-12-23T01:31:45.585Z,41.60
2022-12-23T01:32:19.286Z,12.50
2022-12-23T01:32:52.857Z,27.90
2022-12-23T01:33:26.285Z,48.70
2022-12-23T01:33:59.877Z,40.00
2022-12-23T01:34:36.980Z,8.30
2022-12-23T01:35:11.175Z,7.60
2022-12-23T01:35:44.735Z,10.10
2022-12-23T01:36:18.511Z,6.60
2022-12-23T01:36:51.987Z,9.90
2022-12-23T01:37:25.426Z,12.30
2022-12-23T01:37:58.890Z,12.50
2022-12-23T01:38:32.752Z,12.40
2022-12-23T01:39:06.136Z,21.70
2022-12-23T01:39:39.630Z,14.20
2022-12-23T01:40:13.198Z,22.30
2022-12-23T01:40:46.646Z,10.90
2022-12-23T01:41:51.281Z,6.80
2022-12-23T01:42:43.784Z,11.70
2022-12-23T01:43:21.314Z,10.30
2022-12-23T01:43:54.893Z,13.00
2022-12-23T01:44:50.873Z,13.00
2022-12-23T01:45:29.274Z,9.30
2022-12-23T01:46:03.056Z,12.70
2022-12-23T01:46:36.450Z,10.10
2022-12-23T01:47:14.651Z,12.70
2022-12-23T01:48:00.936Z,11.40
2022-12-23T01:48:34.418Z,15.30
2022-12-23T01:49:08.082Z,12.00
2022-12-23T01:49:43.072Z,13.90
2022-12-23T01:50:31.748Z,11.60
2022-12-23T01:51:25.015Z,12.00
2022-12-23T01:51:58.525Z,11.20
2022-12-23T01:52:39.169Z,10.00
2022-12-23T01:53:18.286Z,11.00
2022-12-23T01:53:58.221Z,10.60
2022-12-23T01:54:32.190Z,10.10
2022-12-23T01:55:06.297Z,8.80
2022-12-23T01:56:08.281Z,10.20
2022-12-23T01:56:42.203Z,13.70
2022-12-23T01:57:15.934Z,16.40
2022-12-23T01:57:49.961Z,13.70
2022-12-23T01:58:27.732Z,14.00
2022-12-23T01:59:06.973Z,10.20
2022-12-23T02:00:00.093Z,10.80
2022-12-23T02:00:52.224Z,10.30
2022-12-23T02:01:44.870Z,10.70
2022-12-23T02:02:37.182Z,8.70
2022-12-23T02:03:29.361Z,6.60
2022-12-23T02:04:10.004Z,6.70
2022-12-23T02:04:43.898Z,11.20
2022-12-23T02:05:17.804Z,12.90
2022-12-23T02:05:53.426Z,11.40
2022-12-23T02:06:49.761Z,9.90
2022-12-23T02:07:42.178Z,8.50
2022-12-23T02:08:35.920Z,9.80
2022-12-23T02:09:27.522Z,9.30
2022-12-23T02:10:55.233Z,10.60
2022-12-23T02:11:43.286Z,6.80
2022-12-23T02:12:44.389Z,7.20
2022-12-23T02:13:35.199Z,10.50
2022-12-23T02:14:55.469Z,8.90
2022-12-23T02:15:57.451Z,9.40
2022-12-23T02:16:38.927Z,9.00
2022-12-23T02:17:41.108Z,8.30
2022-12-23T02:18:38.979Z,10.80
2022-12-23T02:19:24.487Z,8.90
2022-12-23T02:20:00.398Z,10.10
2022-12-23T02:20:39.679Z,10.30
2022-12-23T02:21:33.651Z,13.80
2022-12-23T02:22:39.397Z,8.70
2022-12-23T02:23:50.865Z,8.80
2022-12-23T02:25:15.629Z,11.80
2022-12-23T02:25:49.027Z,7.20
2022-12-23T02:26:49.933Z,10.00
2022-12-23T02:27:42.561Z,7.80
2022-12-23T02:28:21.671Z,8.10
2022-12-23T02:29:31.940Z,9.50
2022-12-23T02:30:23.073Z,8.10
2022-12-23T02:32:11.325Z,7.30
2022-12-23T02:33:07.970Z,11.40
2022-12-23T02:33:59.738Z,8.20
2022-12-23T02:34:40.483Z,8.30
2022-12-23T02:35:31.564Z,11.30
2022-12-23T02:37:09.078Z,6.30
2022-12-23T02:38:04.601Z,10.80
2022-12-23T02:39:05.975Z,9.50
2022-12-23T02:39:50.862Z,8.20
2022-12-23T02:40:40.843Z,8.10
2022-12-23T02:41:23.689Z,8.90
2022-12-23T02:42:04.304Z,9.40
2022-12-23T02:43:00.824Z,10.00
2022-12-23T02:43:42.973Z,6.70
2022-12-23T02:44:30.471Z,7.40
2022-12-23T02:45:10.602Z,24.70
2022-12-23T02:45:57.264Z,23.00
2022-12-23T02:46:41.012Z,17.10
2022-12-23T02:47:22.974Z,8.20
2022-12-23T02:48:27.781Z,10.50
2022-12-23T02:51:24.989Z,198.30
2022-12-23T02:52:01.804Z,175.50
2022-12-23T02:52:38.196Z,273.10
2022-12-23T02:53:19.950Z,204.00
2022-12-23T02:53:57.811Z,67.80
2022-12-23T02:54:41.127Z,263.70
2022-12-23T02:55:24.570Z,186.50
2022-12-23T02:56:01.356Z,87.30
2022-12-23T02:56:37.581Z,62.80
2022-12-23T02:57:13.310Z,86.80
2022-12-23T02:57:50.234Z,199.90
2022-12-23T02:58:29.433Z,214.00
2022-12-23T02:59:13.599Z,111.00
2022-12-23T02:59:51.395Z,118.50
2022-12-23T03:00:24.856Z,149.90
2022-12-23T03:01:00.890Z,109.60
2022-12-23T03:01:36.011Z,150.80
2022-12-23T03:02:10.048Z,78.00
2022-12-23T03:02:45.445Z,74.90
2022-12-23T03:03:22.326Z,21.20
2022-12-23T03:03:55.945Z,10.90
2022-12-23T03:04:29.311Z,8.60
2022-12-23T03:05:02.656Z,7.00
2022-12-23T03:05:45.387Z,13.00
2022-12-23T03:06:27.361Z,4.60
2022-12-23T03:07:07.352Z,5.10
2022-12-23T03:07:43.809Z,5.00
2022-12-23T03:08:30.645Z,5.70
2022-12-23T03:09:04.494Z,5.90
2022-12-23T03:09:55.700Z,6.30
2022-12-23T03:11:16.904Z,5.90
2022-12-23T03:11:54.226Z,4.70
2022-12-23T03:12:55.138Z,3.70
2022-12-23T03:13:43.331Z,4.90
2022-12-23T03:14:49.648Z,3.40
2022-12-23T03:15:52.297Z,3.30
2022-12-23T03:16:46.932Z,4.50
2022-12-23T03:17:39.095Z,4.30
2022-12-23T03:18:22.120Z,4.80
2022-12-23T03:19:04.302Z,6.70
2022-12-23T03:19:50.352Z,3.70
2022-12-23T03:20:54.550Z,147.20
2022-12-23T03:21:30.798Z,22.10
2022-12-23T03:22:41.920Z,21.30
2022-12-23T03:23:21.152Z,4.30
2022-12-23T03:24:03.734Z,5.40
2022-12-23T03:24:55.507Z,4.70
2022-12-23T03:25:50.459Z,4.50
2022-12-23T03:26:34.309Z,26.80
2022-12-23T03:27:31.478Z,108.70
2022-12-23T03:28:17.763Z,49.90
2022-12-23T03:29:03.397Z,22.50
2022-12-23T03:29:51.875Z,82.40
2022-12-23T03:30:26.397Z,6.70
2022-12-23T03:31:02.031Z,4.70
2022-12-23T03:31:36.848Z,7.50
2022-12-23T03:32:14.457Z,5.00
2022-12-23T03:32:52.942Z,4.90
2022-12-23T03:33:28.690Z,4.20
2022-12-23T03:34:12.040Z,163.20
2022-12-23T03:34:50.405Z,11.90
2022-12-23T03:35:34.217Z,6.40
2022-12-23T03:36:13.639Z,6.00
2022-12-23T03:36:53.486Z,6.90
2022-12-23T03:37:32.109Z,4.20
2022-12-23T03:38:07.974Z,3.30
2022-12-23T03:38:44.165Z,150.90
2022-12-23T03:39:21.970Z,80.70
2022-12-23T03:40:03.754Z,60.90
2022-12-23T03:40:45.085Z,5.50
2022-12-23T03:41:25.489Z,5.50
2022-12-23T03:42:06.585Z,7.80
2022-12-23T03:42:42.078Z,4.50
2022-12-23T03:43:27.583Z,3.90
2022-12-23T03:44:13.693Z,4.10
2022-12-23T03:45:19.241Z,4.00
2022-12-23T03:45:49.124Z,5.80
2022-12-23T03:46:54.589Z,4.70
2022-12-23T03:47:32.453Z,3.00
2022-12-23T03:48:11.446Z,6.00
2022-12-23T03:49:01.476Z,3.80
2022-12-23T03:49:44.032Z,2.80
2022-12-23T03:50:20.934Z,3.90
2022-12-23T03:50:58.724Z,4.20
2022-12-23T03:51:48.041Z,5.50
2022-12-23T03:52:28.655Z,3.00
2022-12-23T03:53:14.319Z,6.20
2022-12-23T03:53:55.031Z,4.40
2022-12-23T03:54:35.273Z,5.50
2022-12-23T03:55:15.411Z,3.50
2022-12-23T03:55:56.914Z,4.80
2022-12-23T03:56:39.624Z,4.30
2022-12-23T03:57:14.167Z,3.80
2022-12-23T03:58:09.734Z,5.20
2022-12-23T03:58:49.691Z,6.20
2022-12-23T03:59:34.556Z,3.30
2022-12-23T04:00:08.829Z,3.90
2022-12-23T04:00:50.836Z,4.40
2022-12-23T04:02:12.290Z,3.70
2022-12-23T04:03:31.679Z,2.30
2022-12-23T04:04:24.802Z,3.30
2022-12-23T04:05:22.757Z,3.10
2022-12-23T04:06:00.716Z,5.30
2022-12-23T04:06:42.616Z,4.60
2022-12-23T04:07:22.524Z,4.30
2022-12-23T04:08:20.804Z,2.60
2022-12-23T04:08:55.047Z,3.70
2022-12-23T04:09:29.364Z,3.00
2022-12-23T04:10:04.566Z,3.50
2022-12-23T04:10:38.131Z,5.70
2022-12-23T04:11:12.269Z,6.00
2022-12-23T04:11:45.879Z,3.40
2022-12-23T04:12:20.991Z,5.00
2022-12-23T04:12:55.380Z,8.20
2022-12-23T04:13:30.378Z,5.80
2022-12-23T04:14:03.852Z,3.90
2022-12-23T04:14:38.470Z,4.40
2022-12-23T04:15:13.250Z,3.70
2022-12-23T04:15:47.120Z,4.80
2022-12-23T04:16:20.762Z,4.70
2022-12-23T04:16:57.409Z,4.60
2022-12-23T04:17:30.859Z,4.60
2022-12-23T04:18:04.466Z,4.10
2022-12-23T04:18:40.018Z,4.70
2022-12-23T04:19:13.738Z,5.90
2022-12-23T04:19:47.667Z,6.30
2022-12-23T04:20:21.528Z,6.50
2022-12-23T04:20:55.070Z,5.50
2022-12-23T04:21:28.533Z,5.80
2022-12-23T04:22:02.015Z,7.50
2022-12-23T04:22:35.571Z,4.00
2022-12-23T04:23:09.024Z,6.30
2022-12-23T04:23:42.632Z,5.20
2022-12-23T04:24:16.314Z,6.70
2022-12-23T04:24:49.671Z,4.60
2022-12-23T04:25:23.084Z,4.60
2022-12-23T04:25:56.538Z,6.80
2022-12-23T04:26:30.122Z,4.90
2022-12-23T04:27:03.647Z,6.70
2022-12-23T04:27:41.486Z,6.30
2022-12-23T04:28:15.000Z,5.70
2022-12-23T04:28:48.461Z,8.20
2022-12-23T04:29:21.839Z,6.20
2022-12-23T04:29:55.391Z,6.80
2022-12-23T04:30:33.878Z,5.10
2022-12-23T04:31:08.135Z,4.10
2022-12-23T04:31:41.722Z,4.70
2022-12-23T04:32:16.123Z,4.60
2022-12-23T04:32:49.519Z,5.10
2022-12-23T04:33:23.115Z,3.90
2022-12-23T04:33:57.067Z,4.90
2022-12-23T04:34:30.459Z,4.50
2022-12-23T04:35:04.431Z,6.10
2022-12-23T04:35:38.070Z,6.70
2022-12-23T04:36:11.726Z,5.10
2022-12-23T04:36:45.126Z,5.70
2022-12-23T04:37:18.574Z,4.30
2022-12-23T04:37:51.998Z,7.10
2022-12-23T04:38:25.346Z,5.30
2022-12-23T04:38:58.787Z,5.50
2022-12-23T04:39:32.329Z,5.80
2022-12-23T04:40:06.735Z,6.20
2022-12-23T04:40:40.402Z,5.10
2022-12-23T04:41:13.802Z,7.40
2022-12-23T04:41:47.358Z,6.40
2022-12-23T04:42:24.357Z,7.40
2022-12-23T04:42:57.943Z,6.00
2022-12-23T04:43:33.964Z,7.90
2022-12-23T04:44:07.504Z,6.00
2022-12-23T04:44:41.248Z,5.50
2022-12-23T04:45:15.324Z,6.00
2022-12-23T04:45:52.223Z,5.50
2022-12-23T04:46:25.715Z,6.30
2022-12-23T04:46:59.599Z,5.60
2022-12-23T04:47:33.116Z,5.00
2022-12-23T04:48:06.685Z,4.70
2022-12-23T04:48:40.045Z,6.00
2022-12-23T04:49:13.501Z,6.80
2022-12-23T04:49:46.949Z,5.70
2022-12-23T04:50:20.400Z,7.20
2022-12-23T04:50:53.766Z,7.40
2022-12-23T04:51:27.418Z,8.40
2022-12-23T04:52:00.911Z,6.80
2022-12-23T04:52:34.317Z,6.40
2022-12-23T04:53:07.776Z,4.90
2022-12-23T04:53:41.356Z,5.90
2022-12-23T04:54:14.772Z,7.10
2022-12-23T04:54:48.348Z,8.20
2022-12-23T04:55:21.850Z,8.20
2022-12-23T04:55:55.318Z,5.80
2022-12-23T04:56:28.741Z,6.30
2022-12-23T04:57:02.389Z,5.90
2022-12-23T04:57:36.043Z,7.30
2022-12-23T04:58:09.652Z,6.70
2022-12-23T04:58:43.324Z,6.30
2022-12-23T04:59:16.878Z,6.90
2022-12-23T04:59:50.336Z,6.90
2022-12-23T05:00:23.847Z,7.40
2022-12-23T05:01:05.781Z,7.80
2022-12-23T05:01:39.679Z,5.60
2022-12-23T05:02:14.087Z,6.70
2022-12-23T05:02:47.865Z,6.80
2022-12-23T05:03:21.638Z,8.70
2022-12-23T05:03:55.155Z,7.00
2022-12-23T05:04:28.659Z,6.00
2022-12-23T05:05:02.139Z,6.10
2022-12-23T05:05:35.584Z,6.10
2022-12-23T05:06:09.463Z,4.90
2022-12-23T05:06:42.966Z,7.30
2022-12-23T05:07:16.463Z,6.90
2022-12-23T05:07:50.725Z,6.20
2022-12-23T05:08:24.170Z,4.80
2022-12-23T05:08:57.506Z,5.50
2022-12-23T05:09:31.022Z,6.90
2022-12-23T05:10:04.641Z,7.70
2022-12-23T05:10:38.301Z,6.80
2022-12-23T05:11:11.749Z,7.40
2022-12-23T05:11:45.191Z,8.00
2022-12-23T05:12:18.694Z,7.40
2022-12-23T05:12:52.142Z,8.00
2022-12-23T05:13:25.616Z,9.20
2022-12-23T05:13:59.056Z,8.50
2022-12-23T05:14:32.446Z,7.40
2022-12-23T05:15:06.523Z,8.60
2022-12-23T05:15:39.976Z,8.90
2022-12-23T05:16:13.619Z,7.90
2022-12-23T05:16:47.278Z,10.20
2022-12-23T05:17:20.773Z,7.40
2022-12-23T05:17:54.345Z,7.90
2022-12-23T05:18:27.793Z,10.50
2022-12-23T05:19:01.344Z,7.80
2022-12-23T05:19:34.949Z,9.50
2022-12-23T05:20:09.140Z,10.70
2022-12-23T05:20:42.827Z,8.40
2022-12-23T05:21:16.458Z,8.50
2022-12-23T05:21:49.924Z,9.80
2022-12-23T05:22:23.447Z,12.40
2022-12-23T05:22:56.859Z,10.00
2022-12-23T05:23:30.371Z,9.40
2022-12-23T05:24:04.130Z,8.40
2022-12-23T05:24:37.592Z,10.60
2022-12-23T05:25:12.324Z,10.80
2022-12-23T05:25:51.925Z,10.10
2022-12-23T05:26:25.439Z,9.70
2022-12-23T05:27:00.336Z,9.10
2022-12-23T05:27:36.070Z,9.30
2022-12-23T05:28:09.938Z,8.70
2022-12-23T05:28:45.733Z,11.60
2022-12-23T05:29:19.203Z,7.00
2022-12-23T05:29:52.788Z,5.80
2022-12-23T05:30:26.406Z,9.40
2022-12-23T05:31:02.534Z,8.40
2022-12-23T05:31:36.140Z,9.80
2022-12-23T05:32:10.250Z,10.60
2022-12-23T05:32:43.713Z,8.60
2022-12-23T05:33:17.135Z,5.80
2022-12-23T05:33:52.719Z,8.50
2022-12-23T05:34:26.359Z,5.60
2022-12-23T05:34:59.847Z,8.50
2022-12-23T05:35:33.444Z,5.10
2022-12-23T05:36:07.841Z,8.30
2022-12-23T05:36:41.713Z,7.90
2022-12-23T05:37:15.173Z,7.60
2022-12-23T05:37:48.672Z,6.60
2022-12-23T05:38:22.294Z,11.80
2022-12-23T05:38:57.606Z,8.60
2022-12-23T05:39:31.184Z,6.80
2022-12-23T05:40:05.189Z,5.00
2022-12-23T05:40:38.669Z,16.30
2022-12-23T05:41:12.245Z,100.80
2022-12-23T05:41:46.129Z,25.90
2022-12-23T05:42:19.761Z,7.00
2022-12-23T05:42:53.187Z,5.90
2022-12-23T05:43:26.668Z,5.20
2022-12-23T05:44:00.204Z,5.50
2022-12-23T05:44:33.647Z,4.10
2022-12-23T05:45:07.710Z,2.70
2022-12-23T05:45:41.652Z,3.60
2022-12-23T05:46:15.142Z,3.70
2022-12-23T05:46:48.547Z,5.80
2022-12-23T05:47:22.025Z,5.30
2022-12-23T05:47:55.417Z,4.20
2022-12-23T05:48:28.764Z,4.90
2022-12-23T05:49:02.283Z,3.70
2022-12-23T05:49:35.689Z,3.80
2022-12-23T05:50:09.984Z,5.90
2022-12-23T05:50:43.960Z,3.80
2022-12-23T05:51:17.663Z,5.10
2022-12-23T05:51:51.094Z,4.80
2022-12-23T05:52:24.503Z,4.30
2022-12-23T05:52:58.085Z,2.20
2022-12-23T05:53:31.723Z,3.50
2022-12-23T05:54:05.194Z,5.10
2022-12-23T05:54:38.803Z,4.20
2022-12-23T05:55:12.168Z,3.50
2022-12-23T05:55:45.622Z,3.70
2022-12-23T05:56:19.050Z,2.60
2022-12-23T05:56:55.474Z,3.50
2022-12-23T05:57:28.934Z,4.00
2022-12-23T05:58:02.957Z,3.50
2022-12-23T05:58:36.548Z,4.60
2022-12-23T05:59:10.210Z,4.20
2022-12-23T05:59:43.903Z,2.40
2022-12-23T06:00:18.526Z,3.30
2022-12-23T06:00:52.048Z,3.50
2022-12-23T06:01:25.555Z,3.20
2022-12-23T06:02:00.066Z,3.40
2022-12-23T06:02:34.048Z,4.00
2022-12-23T06:03:08.004Z,5.40
2022-12-23T06:03:41.829Z,2.90
2022-12-23T06:04:15.534Z,3.40
2022-12-23T06:04:50.014Z,3.00
2022-12-23T06:05:23.560Z,2.50
2022-12-23T06:05:57.087Z,2.70
2022-12-23T06:06:30.611Z,17.80
2022-12-23T06:07:04.245Z,5.30
2022-12-23T06:07:39.286Z,2.20
2022-12-23T06:08:12.891Z,2.30
2022-12-23T06:08:46.475Z,3.40
2022-12-23T06:09:19.995Z,2.70
2022-12-23T06:09:53.583Z,2.30
2022-12-23T06:10:26.974Z,4.60
2022-12-23T06:11:00.464Z,3.80
2022-12-23T06:11:33.817Z,4.30
2022-12-23T06:12:07.453Z,4.10
2022-12-23T06:12:40.900Z,86.50
2022-12-23T06:13:14.376Z,41.60
2022-12-23T06:13:47.885Z,8.70
2022-12-23T06:14:28.854Z,3.70
2022-12-23T06:15:03.495Z,4.30
2022-12-23T06:15:37.177Z,5.90
2022-12-23T06:16:10.867Z,5.70
2022-12-23T06:16:44.524Z,5.70
2022-12-23T06:17:17.962Z,7.00
2022-12-23T06:17:51.861Z,7.70
2022-12-23T06:18:25.521Z,7.50
2022-12-23T06:18:59.209Z,11.30
2022-12-23T06:19:32.891Z,9.40
2022-12-23T06:20:07.171Z,10.20
2022-12-23T06:20:41.040Z,8.20
2022-12-23T06:21:14.569Z,10.80
2022-12-23T06:21:48.199Z,24.50
2022-12-23T06:22:22.023Z,11.30
2022-12-23T06:22:55.433Z,12.30
2022-12-23T06:23:28.779Z,20.90
2022-12-23T06:24:02.397Z,49.70
2022-12-23T06:24:36.608Z,11.50
2022-12-23T06:25:10.341Z,9.10
2022-12-23T06:25:43.865Z,17.20
2022-12-23T06:26:18.780Z,29.30
2022-12-23T06:26:57.020Z,10.70
2022-12-23T06:27:31.121Z,7.90
2022-12-23T06:28:05.480Z,8.40
2022-12-23T06:28:38.899Z,10.00
2022-12-23T06:29:12.558Z,8.10
2022-12-23T06:29:46.345Z,7.40
2022-12-23T06:30:19.832Z,9.00
2022-12-23T06:30:55.102Z,52.70
2022-12-23T06:31:28.835Z,28.20
2022-12-23T06:32:02.588Z,7.90
2022-12-23T06:32:38.564Z,8.80
2022-12-23T06:33:12.713Z,8.90
2022-12-23T06:34:00.543Z,8.60
2022-12-23T06:34:34.211Z,7.20
2022-12-23T06:35:09.070Z,6.50
2022-12-23T06:35:43.464Z,6.00
2022-12-23T06:36:16.887Z,6.50
2022-12-23T06:36:50.357Z,6.40
2022-12-23T06:37:23.825Z,4.40
2022-12-23T06:37:57.209Z,4.90
2022-12-23T06:38:30.549Z,6.00
2022-12-23T06:39:04.054Z,59.90
2022-12-23T06:39:37.441Z,121.70
2022-12-23T06:40:11.586Z,38.30
2022-12-23T06:40:45.213Z,93.60
2022-12-23T06:41:18.939Z,39.70
2022-12-23T06:41:52.365Z,30.00
2022-12-23T06:42:25.767Z,51.40
2022-12-23T06:42:59.322Z,18.10
2022-12-23T06:43:32.721Z,46.40
2022-12-23T06:44:06.255Z,9.80
2022-12-23T06:44:39.739Z,6.90
2022-12-23T06:45:13.837Z,4.90
2022-12-23T06:45:49.358Z,5.90
2022-12-23T06:46:23.086Z,7.60
2022-12-23T06:46:56.542Z,6.30
2022-12-23T06:47:31.426Z,6.40
2022-12-23T06:48:05.590Z,5.90
2022-12-23T06:48:38.991Z,6.70
2022-12-23T06:49:14.168Z,12.70
2022-12-23T06:49:47.977Z,370.90
2022-12-23T06:50:22.559Z,18.20
2022-12-23T06:50:56.021Z,394.20
2022-12-23T06:51:29.559Z,674.10
2022-12-23T06:52:03.039Z,609.40
2022-12-23T06:52:36.545Z,150.80
2022-12-23T06:53:10.515Z,11.80
2022-12-23T06:53:44.444Z,8.60
2022-12-23T06:54:17.865Z,17.30
2022-12-23T06:54:51.369Z,24.90
2022-12-23T06:55:24.746Z,51.80
2022-12-23T06:56:04.859Z,110.10
2022-12-23T06:56:39.031Z,42.30
2022-12-23T06:57:13.147Z,20.70
2022-12-23T06:57:46.735Z,8.90
2022-12-23T06:58:20.356Z,8.90
2022-12-23T06:58:53.844Z,7.40
2022-12-23T06:59:28.180Z,4.70
2022-12-23T07:00:01.834Z,5.40
2022-12-23T07:00:35.390Z,5.80
2022-12-23T07:01:10.195Z,6.00
2022-12-23T07:01:43.999Z,5.10
2022-12-23T07:02:20.836Z,3.90
2022-12-23T07:02:54.944Z,4.00
2022-12-23T07:03:28.726Z,6.00
2022-12-23T07:04:03.266Z,4.80
2022-12-23T07:04:36.775Z,8.00
2022-12-23T07:05:11.019Z,4.40
2022-12-23T07:05:48.335Z,4.30
2022-12-23T07:06:21.905Z,95.30
2022-12-23T07:06:55.161Z,52.40
2022-12-23T07:07:28.846Z,4.30
2022-12-23T07:08:03.507Z,5.70
2022-12-23T07:08:45.814Z,4.20
2022-12-23T07:09:26.996Z,2.80
2022-12-23T07:10:00.794Z,2.20
2022-12-23T07:10:35.693Z,3.50
2022-12-23T07:11:09.326Z,3.20
2022-12-23T07:11:42.806Z,2.10
2022-12-23T07:12:16.292Z,2.40
2022-12-23T07:12:51.005Z,2.20
2022-12-23T07:13:24.886Z,2.20
2022-12-23T07:13:59.723Z,2.70
2022-12-23T07:14:33.190Z,2.70
2022-12-23T07:15:07.427Z,3.60
2022-12-23T07:15:41.151Z,2.30
2022-12-23T07:16:14.686Z,2.10
2022-12-23T07:16:48.597Z,2.00
2022-12-23T07:17:22.038Z,2.20
2022-12-23T07:17:55.881Z,2.10
2022-12-23T07:18:30.015Z,1.80
2022-12-23T07:19:04.451Z,2.30
2022-12-23T07:19:40.594Z,2.00
2022-12-23T07:20:14.597Z,2.20
2022-12-23T07:20:48.187Z,2.00
2022-12-23T07:21:29.847Z,1.80
2022-12-23T07:22:03.770Z,1.60
2022-12-23T07:22:37.349Z,1.80
2022-12-23T07:23:10.849Z,2.20
2022-12-23T07:23:44.520Z,1.50
2022-12-23T07:24:17.972Z,2.10
2022-12-23T07:24:51.885Z,1.30
2022-12-23T07:25:28.920Z,1.60
2022-12-23T07:26:02.549Z,1.70
2022-12-23T07:26:36.123Z,1.60
2022-12-23T07:27:09.818Z,1.60
2022-12-23T07:27:46.309Z,1.70
2022-12-23T07:28:19.889Z,1.80
2022-12-23T07:28:53.511Z,1.30
2022-12-23T07:29:26.975Z,1.50
2022-12-23T07:30:00.426Z,1.70
2022-12-23T07:30:33.977Z,1.50
2022-12-23T07:31:08.409Z,1.10
2022-12-23T07:31:42.333Z,1.20
2022-12-23T07:32:15.864Z,1.70
2022-12-23T07:32:53.276Z,1.30
2022-12-23T07:33:27.239Z,1.60
2022-12-23T07:34:00.818Z,1.30
2022-12-23T07:34:35.131Z,1.50
2022-12-23T07:35:09.572Z,1.30
2022-12-23T07:35:43.198Z,2.00
2022-12-23T07:36:16.738Z,1.70
2022-12-23T07:36:50.247Z,2.30
2022-12-23T07:37:23.656Z,1.70
2022-12-23T07:37:59.280Z,1.50
2022-12-23T07:38:32.771Z,1.50
2022-12-23T07:39:06.726Z,1.70
2022-12-23T07:39:40.408Z,1.40
2022-12-23T07:40:14.108Z,2.10
2022-12-23T07:40:49.627Z,1.40
2022-12-23T07:41:23.055Z,1.50
2022-12-23T07:42:16.691Z,2.20
2022-12-23T07:42:53.928Z,1.70
2022-12-23T07:43:27.646Z,1.80
2022-12-23T07:44:01.301Z,1.70
2022-12-23T07:44:34.803Z,1.60
2022-12-23T07:45:08.483Z,1.60
2022-12-23T07:45:42.122Z,1.80
2022-12-23T07:46:15.651Z,1.90
2022-12-23T07:46:49.465Z,2.00
2022-12-23T07:47:23.735Z,1.70
2022-12-23T07:48:01.197Z,1.80
2022-12-23T07:48:34.934Z,1.80
2022-12-23T07:49:08.505Z,1.80
2022-12-23T07:49:42.043Z,1.80
2022-12-23T07:50:15.633Z,2.30
2022-12-23T07:50:49.054Z,1.90
2022-12-23T07:51:22.354Z,1.70
2022-12-23T07:51:55.848Z,1.70
2022-12-23T07:52:30.301Z,1.40
2022-12-23T07:53:04.025Z,1.80
2022-12-23T07:53:37.706Z,1.90
2022-12-23T07:54:14.019Z,1.40
2022-12-23T07:54:47.440Z,1.80
2022-12-23T07:55:21.843Z,1.70
2022-12-23T07:55:56.852Z,1.60
2022-12-23T07:56:30.684Z,2.10
2022-12-23T07:57:04.298Z,2.00
2022-12-23T07:57:38.560Z,1.70
2022-12-23T07:58:13.924Z,1.90
2022-12-23T07:58:52.522Z,1.90
2022-12-23T07:59:27.456Z,1.80
2022-12-23T08:00:01.033Z,2.70
2022-12-23T08:00:35.479Z,2.00
2022-12-23T08:01:09.224Z,1.70
2022-12-23T08:01:42.919Z,1.70
2022-12-23T08:02:16.490Z,1.80
2022-12-23T08:02:50.158Z,2.10
2022-12-23T08:03:23.822Z,2.50
2022-12-23T08:03:57.420Z,1.60
2022-12-23T08:04:30.893Z,2.30
2022-12-23T08:05:04.930Z,2.20
2022-12-23T08:05:38.362Z,2.80
2022-12-23T08:06:14.135Z,1.90
2022-12-23T08:06:47.617Z,1.80
2022-12-23T08:07:21.064Z,2.10
2022-12-23T08:07:54.402Z,2.10
2022-12-23T08:08:27.882Z,2.30
2022-12-23T08:09:01.447Z,2.60
2022-12-23T08:09:34.912Z,1.90
2022-12-23T08:10:09.247Z,2.30
2022-12-23T08:10:48.235Z,2.40
2022-12-23T08:11:23.611Z,3.00
2022-12-23T08:11:59.483Z,2.40
2022-12-23T08:12:33.304Z,2.70
2022-12-23T08:13:06.756Z,2.30
2022-12-23T08:13:42.872Z,2.80
2022-12-23T08:14:16.272Z,2.30
2022-12-23T08:14:51.477Z,2.30
2022-12-23T08:15:24.917Z,2.30
2022-12-23T08:16:00.527Z,2.10
2022-12-23T08:16:39.529Z,2.40
2022-12-23T08:17:16.710Z,2.10
2022-12-23T08:17:50.322Z,2.30